sensor_id;sensor_type;location;lat;lon;timestamp;pressure;altitude;pressure_sealevel;temperature;humidity
48244;BME280;34053;51.088;6.572;2022-11-20T00:01:44;100668.78;;;4.49;70.98
48244;BME280;34053;51.088;6.572;2022-11-20T00:04:15;100662.69;;;4.52;71.22
48244;BME280;34053;51.088;6.572;2022-11-20T00:06:46;100663.59;;;4.52;71.29
48244;BME280;34053;51.088;6.572;2022-11-20T00:09:17;100667.91;;;4.58;70.57
48244;BME280;34053;51.088;6.572;2022-11-20T00:11:47;100671.34;;;4.66;71.27
48244;BME280;34053;51.088;6.572;2022-11-20T00:14:17;100674.81;;;4.62;70.44
48244;BME280;34053;51.088;6.572;2022-11-20T00:16:48;100673.06;;;4.61;70.71
48244;BME280;34053;51.088;6.572;2022-11-20T00:19:18;100673.09;;;4.60;71.04
48244;BME280;34053;51.088;6.572;2022-11-20T00:21:49;100671.34;;;4.63;71.06
48244;BME280;34053;51.088;6.572;2022-11-20T00:24:21;100676.53;;;4.60;70.48
48244;BME280;34053;51.088;6.572;2022-11-20T00:26:52;100666.16;;;4.63;70.75
48244;BME280;34053;51.088;6.572;2022-11-20T00:29:22;100655.72;;;4.65;70.66
48244;BME280;34053;51.088;6.572;2022-11-20T00:31:52;100659.22;;;4.65;70.53
48244;BME280;34053;51.088;6.572;2022-11-20T00:34:23;100657.44;;;4.67;70.92
48244;BME280;34053;51.088;6.572;2022-11-20T00:36:53;100659.19;;;4.68;70.57
48244;BME280;34053;51.088;6.572;2022-11-20T00:39:24;100651.38;;;4.68;70.65
48244;BME280;34053;51.088;6.572;2022-11-20T00:41:54;100649.66;;;4.66;71.07
48244;BME280;34053;51.088;6.572;2022-11-20T00:44:25;100655.72;;;4.69;71.05
48244;BME280;34053;51.088;6.572;2022-11-20T00:46:55;100660.03;;;4.72;70.92
48244;BME280;34053;51.088;6.572;2022-11-20T00:49:25;100655.72;;;4.72;71.17
48244;BME280;34053;51.088;6.572;2022-11-20T00:51:56;100647.06;;;4.67;71.23
48244;BME280;34053;51.088;6.572;2022-11-20T00:54:26;100648.75;;;4.78;70.76
48244;BME280;34053;51.088;6.572;2022-11-20T00:56:57;100646.16;;;4.73;71.23
48244;BME280;34053;51.088;6.572;2022-11-20T00:59:27;100650.50;;;4.74;70.71
48244;BME280;34053;51.088;6.572;2022-11-20T01:01:58;100646.16;;;4.76;71.31
48244;BME280;34053;51.088;6.572;2022-11-20T01:04:28;100654.84;;;4.78;70.41
48244;BME280;34053;51.088;6.572;2022-11-20T01:06:59;100649.63;;;4.78;70.93
48244;BME280;34053;51.088;6.572;2022-11-20T01:09:29;100644.44;;;4.78;71.21
48244;BME280;34053;51.088;6.572;2022-11-20T01:12:00;100655.69;;;4.76;70.57
48244;BME280;34053;51.088;6.572;2022-11-20T01:14:30;100647.03;;;4.77;71.09
48244;BME280;34053;51.088;6.572;2022-11-20T01:17:01;100643.59;;;4.71;71.13
48244;BME280;34053;51.088;6.572;2022-11-20T01:19:31;100642.69;;;4.76;71.02
48244;BME280;34053;51.088;6.572;2022-11-20T01:22:01;100645.28;;;4.82;70.85
48244;BME280;34053;51.088;6.572;2022-11-20T01:24:32;100644.41;;;4.80;70.84
48244;BME280;34053;51.088;6.572;2022-11-20T01:27:03;100631.41;;;4.80;70.70
48244;BME280;34053;51.088;6.572;2022-11-20T01:29:33;100633.16;;;4.78;71.31
48244;BME280;34053;51.088;6.572;2022-11-20T01:32:04;100626.25;;;4.73;70.80
48244;BME280;34053;51.088;6.572;2022-11-20T01:34:34;100622.78;;;4.73;71.22
48244;BME280;34053;51.088;6.572;2022-11-20T01:37:05;100625.38;;;4.76;70.91
48244;BME280;34053;51.088;6.572;2022-11-20T01:39:35;100612.41;;;4.71;71.15
48244;BME280;34053;51.088;6.572;2022-11-20T01:42:07;100615.81;;;4.80;71.03
48244;BME280;34053;51.088;6.572;2022-11-20T01:44:59;100612.34;;;4.78;70.76
48244;BME280;34053;51.088;6.572;2022-11-20T01:47:39;100619.28;;;4.82;70.86
48244;BME280;34053;51.088;6.572;2022-11-20T01:50:24;100617.56;;;4.78;70.75
48244;BME280;34053;51.088;6.572;2022-11-20T01:53:00;100620.19;;;4.76;71.60
48244;BME280;34053;51.088;6.572;2022-11-20T01:55:35;100618.44;;;4.77;71.39
48244;BME280;34053;51.088;6.572;2022-11-20T01:58:07;100609.75;;;4.78;70.92
48244;BME280;34053;51.088;6.572;2022-11-20T02:00:38;100601.91;;;4.84;70.64
48244;BME280;34053;51.088;6.572;2022-11-20T02:03:16;100613.19;;;4.84;70.71
48244;BME280;34053;51.088;6.572;2022-11-20T02:06:04;100603.63;;;4.91;70.43
48244;BME280;34053;51.088;6.572;2022-11-20T02:08:38;100609.75;;;4.81;71.28
48244;BME280;34053;51.088;6.572;2022-11-20T02:11:09;100606.28;;;4.79;70.93
48244;BME280;34053;51.088;6.572;2022-11-20T02:13:40;100614.97;;;4.79;71.17
48244;BME280;34053;51.088;6.572;2022-11-20T02:16:23;100605.44;;;4.77;70.58
48244;BME280;34053;51.088;6.572;2022-11-20T02:18:55;100607.13;;;4.82;70.63
48244;BME280;34053;51.088;6.572;2022-11-20T02:24:17;100611.47;;;4.83;70.77
48244;BME280;34053;51.088;6.572;2022-11-20T02:27:01;100598.44;;;4.85;71.01
48244;BME280;34053;51.088;6.572;2022-11-20T02:29:36;100604.53;;;4.84;71.17
48244;BME280;34053;51.088;6.572;2022-11-20T02:32:38;100603.63;;;4.89;70.81
48244;BME280;34053;51.088;6.572;2022-11-20T02:35:38;100600.19;;;4.86;70.42
48244;BME280;34053;51.088;6.572;2022-11-20T02:38:02;100603.66;;;4.85;70.65
48244;BME280;34053;51.088;6.572;2022-11-20T02:40:32;100601.03;;;4.88;71.04
48244;BME280;34053;51.088;6.572;2022-11-20T02:43:03;100600.19;;;4.86;71.46
48244;BME280;34053;51.088;6.572;2022-11-20T02:45:33;100595.00;;;4.87;70.81
48244;BME280;34053;51.088;6.572;2022-11-20T02:48:05;100601.06;;;4.86;70.80
48244;BME280;34053;51.088;6.572;2022-11-20T02:50:38;100605.38;;;4.89;70.78
48244;BME280;34053;51.088;6.572;2022-11-20T02:53:09;100601.03;;;4.91;70.73
48244;BME280;34053;51.088;6.572;2022-11-20T02:55:39;100605.34;;;4.92;71.29
48244;BME280;34053;51.088;6.572;2022-11-20T02:58:10;100608.81;;;4.94;70.54
48244;BME280;34053;51.088;6.572;2022-11-20T03:00:40;100615.75;;;4.92;70.76
48244;BME280;34053;51.088;6.572;2022-11-20T03:03:11;100604.44;;;4.98;71.00
48244;BME280;34053;51.088;6.572;2022-11-20T03:05:41;100608.84;;;4.91;70.85
48244;BME280;34053;51.088;6.572;2022-11-20T03:08:12;100598.44;;;4.88;70.90
48244;BME280;34053;51.088;6.572;2022-11-20T03:10:42;100603.59;;;4.94;70.47
48244;BME280;34053;51.088;6.572;2022-11-20T03:13:12;100610.53;;;4.92;70.92
48244;BME280;34053;51.088;6.572;2022-11-20T03:15:43;100611.44;;;4.88;70.90
48244;BME280;34053;51.088;6.572;2022-11-20T03:18:13;100606.25;;;4.91;71.26
48244;BME280;34053;51.088;6.572;2022-11-20T03:20:44;100602.75;;;4.92;71.08
48244;BME280;34053;51.088;6.572;2022-11-20T03:23:15;100600.16;;;4.92;70.79
48244;BME280;34053;51.088;6.572;2022-11-20T03:25:46;100594.06;;;4.96;70.76
48244;BME280;34053;51.088;6.572;2022-11-20T03:28:16;100587.13;;;4.95;70.90
48244;BME280;34053;51.088;6.572;2022-11-20T03:30:47;100591.47;;;4.93;70.85
48244;BME280;34053;51.088;6.572;2022-11-20T03:33:17;100589.75;;;4.92;71.01
48244;BME280;34053;51.088;6.572;2022-11-20T03:35:48;100588.00;;;4.94;70.94
48244;BME280;34053;51.088;6.572;2022-11-20T03:38:18;100580.25;;;4.91;70.86
48244;BME280;34053;51.088;6.572;2022-11-20T03:40:49;100586.25;;;4.96;70.67
48244;BME280;34053;51.088;6.572;2022-11-20T03:43:19;100589.78;;;4.89;70.64
48244;BME280;34053;51.088;6.572;2022-11-20T03:45:50;100599.25;;;4.99;70.88
48244;BME280;34053;51.088;6.572;2022-11-20T03:48:20;100598.41;;;4.94;70.26
48244;BME280;34053;51.088;6.572;2022-11-20T03:50:52;100589.69;;;5.01;69.79
48244;BME280;34053;51.088;6.572;2022-11-20T03:53:23;100585.44;;;4.89;70.56
48244;BME280;34053;51.088;6.572;2022-11-20T03:55:53;100585.41;;;4.94;69.87
48244;BME280;34053;51.088;6.572;2022-11-20T03:58:24;100585.44;;;4.88;69.98
48244;BME280;34053;51.088;6.572;2022-11-20T04:00:54;100588.91;;;4.90;69.72
48244;BME280;34053;51.088;6.572;2022-11-20T04:03:25;100591.50;;;4.90;69.89
48244;BME280;34053;51.088;6.572;2022-11-20T04:05:55;100590.63;;;4.93;69.61
48244;BME280;34053;51.088;6.572;2022-11-20T04:08:31;100588.97;;;4.79;70.27
48244;BME280;34053;51.088;6.572;2022-11-20T04:11:11;100586.31;;;4.84;70.29
48244;BME280;34053;51.088;6.572;2022-11-20T04:13:46;100582.91;;;4.77;69.81
48244;BME280;34053;51.088;6.572;2022-11-20T04:16:17;100588.19;;;4.60;70.57
48244;BME280;34053;51.088;6.572;2022-11-20T04:18:55;100580.31;;;4.74;70.46
48244;BME280;34053;51.088;6.572;2022-11-20T04:21:27;100574.22;;;4.77;69.73
48244;BME280;34053;51.088;6.572;2022-11-20T04:23:57;100576.03;;;4.70;70.11
48244;BME280;34053;51.088;6.572;2022-11-20T04:26:29;100577.75;;;4.69;70.12
48244;BME280;34053;51.088;6.572;2022-11-20T04:29:00;100583.00;;;4.57;70.00
48244;BME280;34053;51.088;6.572;2022-11-20T04:31:34;100580.41;;;4.54;70.40
48244;BME280;34053;51.088;6.572;2022-11-20T04:34:06;100580.47;;;4.46;70.63
48244;BME280;34053;51.088;6.572;2022-11-20T04:36:36;100581.31;;;4.50;69.77
48244;BME280;34053;51.088;6.572;2022-11-20T04:39:12;100576.16;;;4.37;70.95
48244;BME280;34053;51.088;6.572;2022-11-20T04:41:44;100577.88;;;4.38;70.96
48244;BME280;34053;51.088;6.572;2022-11-20T04:44:15;100584.84;;;4.33;70.47
48244;BME280;34053;51.088;6.572;2022-11-20T04:46:45;100577.06;;;4.33;70.30
48244;BME280;34053;51.088;6.572;2022-11-20T04:49:16;100581.41;;;4.30;70.82
48244;BME280;34053;51.088;6.572;2022-11-20T04:51:46;100579.66;;;4.27;70.68
48244;BME280;34053;51.088;6.572;2022-11-20T04:54:17;100581.31;;;4.47;70.32
48244;BME280;34053;51.088;6.572;2022-11-20T04:56:48;100574.47;;;4.33;70.21
48244;BME280;34053;51.088;6.572;2022-11-20T04:59:18;100570.13;;;4.26;71.04
48244;BME280;34053;51.088;6.572;2022-11-20T05:01:49;100582.25;;;4.30;70.76
48244;BME280;34053;51.088;6.572;2022-11-20T05:04:19;100583.91;;;4.44;70.27
48244;BME280;34053;51.088;6.572;2022-11-20T05:06:50;100583.97;;;4.33;70.22
48244;BME280;34053;51.088;6.572;2022-11-20T05:09:20;100579.69;;;4.24;70.71
48244;BME280;34053;51.088;6.572;2022-11-20T05:11:51;100577.94;;;4.20;71.08
48244;BME280;34053;51.088;6.572;2022-11-20T05:14:21;100581.44;;;4.16;71.08
48244;BME280;34053;51.088;6.572;2022-11-20T05:16:52;100594.41;;;4.16;71.01
48244;BME280;34053;51.088;6.572;2022-11-20T05:19:22;100583.16;;;4.21;70.71
48244;BME280;34053;51.088;6.572;2022-11-20T05:21:53;100580.50;;;4.37;70.93
48244;BME280;34053;51.088;6.572;2022-11-20T05:24:23;100582.25;;;4.27;70.40
48244;BME280;34053;51.088;6.572;2022-11-20T05:26:53;100576.22;;;4.22;70.52
48244;BME280;34053;51.088;6.572;2022-11-20T05:29:24;100581.41;;;4.22;70.83
48244;BME280;34053;51.088;6.572;2022-11-20T05:31:54;100585.75;;;4.21;70.71
48244;BME280;34053;51.088;6.572;2022-11-20T05:34:25;100577.03;;;4.32;70.79
48244;BME280;34053;51.088;6.572;2022-11-20T05:36:55;100577.91;;;4.26;70.37
48244;BME280;34053;51.088;6.572;2022-11-20T05:39:26;100571.03;;;4.22;70.91
48244;BME280;34053;51.088;6.572;2022-11-20T05:41:56;100577.97;;;4.17;71.09
48244;BME280;34053;51.088;6.572;2022-11-20T05:44:45;100572.78;;;4.21;70.58
48244;BME280;34053;51.088;6.572;2022-11-20T05:47:16;100581.41;;;4.19;70.63
48244;BME280;34053;51.088;6.572;2022-11-20T05:49:46;100571.03;;;4.19;70.41
48244;BME280;34053;51.088;6.572;2022-11-20T05:52:17;100565.00;;;4.17;71.13
48244;BME280;34053;51.088;6.572;2022-11-20T05:54:47;100564.97;;;4.20;71.21
48244;BME280;34053;51.088;6.572;2022-11-20T05:57:18;100563.25;;;4.17;71.38
48244;BME280;34053;51.088;6.572;2022-11-20T05:59:48;100563.28;;;4.11;71.97
48244;BME280;34053;51.088;6.572;2022-11-20T06:02:19;100563.25;;;4.20;71.27
48244;BME280;34053;51.088;6.572;2022-11-20T06:04:49;100553.69;;;4.21;70.93
48244;BME280;34053;51.088;6.572;2022-11-20T06:07:19;100556.28;;;4.22;71.15
48244;BME280;34053;51.088;6.572;2022-11-20T06:09:50;100560.63;;;4.22;71.17
48244;BME280;34053;51.088;6.572;2022-11-20T06:12:20;100550.25;;;4.19;71.07
48244;BME280;34053;51.088;6.572;2022-11-20T06:14:51;100551.09;;;4.21;71.35
48244;BME280;34053;51.088;6.572;2022-11-20T06:17:21;100552.81;;;4.27;71.52
48244;BME280;34053;51.088;6.572;2022-11-20T06:19:52;100553.69;;;4.30;70.71
48244;BME280;34053;51.088;6.572;2022-11-20T06:22:22;100544.13;;;4.34;70.73
48244;BME280;34053;51.088;6.572;2022-11-20T06:24:53;100554.53;;;4.37;70.74
48244;BME280;34053;51.088;6.572;2022-11-20T06:27:23;100554.56;;;4.24;71.13
48244;BME280;34053;51.088;6.572;2022-11-20T06:29:54;100561.44;;;4.36;70.70
48244;BME280;34053;51.088;6.572;2022-11-20T06:32:24;100557.13;;;4.37;70.73
48244;BME280;34053;51.088;6.572;2022-11-20T06:34:55;100560.59;;;4.28;71.11
48244;BME280;34053;51.088;6.572;2022-11-20T06:37:25;100569.28;;;4.24;71.47
48244;BME280;34053;51.088;6.572;2022-11-20T06:39:55;100571.03;;;4.25;71.00
48244;BME280;34053;51.088;6.572;2022-11-20T06:42:26;100577.06;;;4.29;70.90
48244;BME280;34053;51.088;6.572;2022-11-20T06:44:56;100583.13;;;4.23;71.66
48244;BME280;34053;51.088;6.572;2022-11-20T06:47:27;100590.94;;;4.23;71.17
48244;BME280;34053;51.088;6.572;2022-11-20T06:49:57;100589.19;;;4.19;71.87
48244;BME280;34053;51.088;6.572;2022-11-20T06:52:28;100585.75;;;4.23;72.24
48244;BME280;34053;51.088;6.572;2022-11-20T06:54:58;100594.41;;;4.25;71.09
48244;BME280;34053;51.088;6.572;2022-11-20T06:57:29;100594.34;;;4.34;71.60
48244;BME280;34053;51.088;6.572;2022-11-20T06:59:59;100598.69;;;4.32;71.27
48244;BME280;34053;51.088;6.572;2022-11-20T07:02:29;100588.28;;;4.41;71.89
48244;BME280;34053;51.088;6.572;2022-11-20T07:05:00;100590.88;;;4.38;71.03
48244;BME280;34053;51.088;6.572;2022-11-20T07:07:30;100594.31;;;4.39;70.84
48244;BME280;34053;51.088;6.572;2022-11-20T07:10:01;100605.63;;;4.27;71.19
48244;BME280;34053;51.088;6.572;2022-11-20T07:12:31;100601.28;;;4.29;71.36
48244;BME280;34053;51.088;6.572;2022-11-20T07:15:02;100608.16;;;4.43;71.38
48244;BME280;34053;51.088;6.572;2022-11-20T07:17:33;100609.91;;;4.39;71.25
48244;BME280;34053;51.088;6.572;2022-11-20T07:20:03;100598.69;;;4.32;71.97
48244;BME280;34053;51.088;6.572;2022-11-20T07:22:34;100609.03;;;4.45;71.37
48244;BME280;34053;51.088;6.572;2022-11-20T07:25:05;100616.00;;;4.38;70.44
48244;BME280;34053;51.088;6.572;2022-11-20T07:27:36;100611.66;;;4.40;71.07
48244;BME280;34053;51.088;6.572;2022-11-20T07:30:06;100609.91;;;4.39;70.32
48244;BME280;34053;51.088;6.572;2022-11-20T07:32:37;100598.69;;;4.32;71.34
48244;BME280;34053;51.088;6.572;2022-11-20T07:35:08;100603.91;;;4.23;70.82
48244;BME280;34053;51.088;6.572;2022-11-20T07:37:38;100594.38;;;4.27;71.02
48244;BME280;34053;51.088;6.572;2022-11-20T07:40:09;100600.47;;;4.16;70.43
48244;BME280;34053;51.088;6.572;2022-11-20T07:42:47;100597.88;;;4.19;70.90
48244;BME280;34053;51.088;6.572;2022-11-20T07:45:19;100601.34;;;4.17;70.55
48244;BME280;34053;51.088;6.572;2022-11-20T07:47:51;100605.66;;;4.15;71.12
48244;BME280;34053;51.088;6.572;2022-11-20T07:50:21;100597.00;;;4.13;71.05
48244;BME280;34053;51.088;6.572;2022-11-20T07:52:52;100591.81;;;4.13;71.26
48244;BME280;34053;51.088;6.572;2022-11-20T07:55:22;100592.69;;;4.10;71.15
48244;BME280;34053;51.088;6.572;2022-11-20T07:57:56;100597.88;;;4.07;71.29
48244;BME280;34053;51.088;6.572;2022-11-20T08:00:27;100588.38;;;4.04;71.06
48244;BME280;34053;51.088;6.572;2022-11-20T08:02:57;100590.13;;;4.04;71.24
48244;BME280;34053;51.088;6.572;2022-11-20T08:05:28;100596.16;;;4.06;71.69
48244;BME280;34053;51.088;6.572;2022-11-20T08:07:59;100590.09;;;4.12;71.17
48244;BME280;34053;51.088;6.572;2022-11-20T08:10:29;100588.34;;;4.10;71.46
48244;BME280;34053;51.088;6.572;2022-11-20T08:13:00;100583.16;;;4.14;71.28
48244;BME280;34053;51.088;6.572;2022-11-20T08:15:50;100583.16;;;4.10;71.36
48244;BME280;34053;51.088;6.572;2022-11-20T08:18:24;100596.16;;;4.17;70.83
48244;BME280;34053;51.088;6.572;2022-11-20T08:20:55;100599.59;;;4.14;71.46
48244;BME280;34053;51.088;6.572;2022-11-20T08:23:25;100591.81;;;4.14;71.73
48244;BME280;34053;51.088;6.572;2022-11-20T08:25:55;100589.22;;;4.17;71.33
48244;BME280;34053;51.088;6.572;2022-11-20T08:28:26;100591.78;;;4.19;71.54
48244;BME280;34053;51.088;6.572;2022-11-20T08:31:00;100584.88;;;4.19;71.30
48244;BME280;34053;51.088;6.572;2022-11-20T08:33:31;100579.66;;;4.18;71.45
48244;BME280;34053;51.088;6.572;2022-11-20T08:36:03;100585.75;;;4.15;71.25
48244;BME280;34053;51.088;6.572;2022-11-20T08:38:33;100589.22;;;4.16;71.90
48244;BME280;34053;51.088;6.572;2022-11-20T08:41:05;100587.50;;;4.15;72.07
48244;BME280;34053;51.088;6.572;2022-11-20T08:43:55;100583.13;;;4.20;71.91
48244;BME280;34053;51.088;6.572;2022-11-20T08:46:30;100586.59;;;4.19;71.87
48244;BME280;34053;51.088;6.572;2022-11-20T08:49:04;100595.25;;;4.21;72.67
48244;BME280;34053;51.088;6.572;2022-11-20T08:51:35;100590.88;;;4.35;71.96
48244;BME280;34053;51.088;6.572;2022-11-20T08:54:06;100584.84;;;4.30;72.53
48244;BME280;34053;51.088;6.572;2022-11-20T08:56:36;100581.38;;;4.31;72.35
48244;BME280;34053;51.088;6.572;2022-11-20T08:59:07;100584.84;;;4.30;72.59
48244;BME280;34053;51.088;6.572;2022-11-20T09:01:37;100584.78;;;4.43;72.17
48244;BME280;34053;51.088;6.572;2022-11-20T09:04:09;100587.38;;;4.46;72.50
48244;BME280;34053;51.088;6.572;2022-11-20T09:06:40;100580.44;;;4.48;72.92
48244;BME280;34053;51.088;6.572;2022-11-20T09:09:10;100589.94;;;4.52;73.04
48244;BME280;34053;51.088;6.572;2022-11-20T09:11:40;100577.81;;;4.57;72.13
48244;BME280;34053;51.088;6.572;2022-11-20T09:14:11;100575.19;;;4.59;73.20
48244;BME280;34053;51.088;6.572;2022-11-20T09:16:41;100568.28;;;4.57;72.48
48244;BME280;34053;51.088;6.572;2022-11-20T09:19:12;100566.53;;;4.60;73.10
48244;BME280;34053;51.088;6.572;2022-11-20T09:21:42;100569.13;;;4.60;72.83
48244;BME280;34053;51.088;6.572;2022-11-20T09:24:13;100567.41;;;4.59;72.82
48244;BME280;34053;51.088;6.572;2022-11-20T09:26:43;100563.06;;;4.62;73.47
48244;BME280;34053;51.088;6.572;2022-11-20T09:29:14;100566.53;;;4.63;73.62
48244;BME280;34053;51.088;6.572;2022-11-20T09:31:44;100565.56;;;4.78;73.25
48244;BME280;34053;51.088;6.572;2022-11-20T09:34:15;100567.31;;;4.74;73.70
48244;BME280;34053;51.088;6.572;2022-11-20T09:36:45;100563.78;;;4.86;73.34
48244;BME280;34053;51.088;6.572;2022-11-20T09:39:16;100558.63;;;4.77;74.90
48244;BME280;34053;51.088;6.572;2022-11-20T09:42:14;100561.22;;;4.81;73.87
48244;BME280;34053;51.088;6.572;2022-11-20T09:47:31;100557.72;;;4.87;73.51
48244;BME280;34053;51.088;6.572;2022-11-20T09:50:32;100561.16;;;4.91;73.80
48244;BME280;34053;51.088;6.572;2022-11-20T09:53:20;100568.00;;;5.06;73.89
48244;BME280;34053;51.088;6.572;2022-11-20T09:55:55;100570.66;;;4.93;74.60
48244;BME280;34053;51.088;6.572;2022-11-20T09:58:47;100562.00;;;4.94;73.85
48244;BME280;34053;51.088;6.572;2022-11-20T10:01:21;100564.59;;;4.94;74.41
48244;BME280;34053;51.088;6.572;2022-11-20T10:04:04;100561.13;;;4.95;74.42
48244;BME280;34053;51.088;6.572;2022-11-20T10:06:41;100560.25;;;4.99;74.11
48244;BME280;34053;51.088;6.572;2022-11-20T10:09:20;100549.81;;;5.06;73.93
48244;BME280;34053;51.088;6.572;2022-11-20T10:14:41;100547.19;;;5.06;74.68
48244;BME280;34053;51.088;6.572;2022-11-20T10:20:21;100526.28;;;5.18;73.67
48244;BME280;34053;51.088;6.572;2022-11-20T10:23:22;100522.81;;;5.19;73.63
48244;BME280;34053;51.088;6.572;2022-11-20T10:28:55;100511.47;;;5.29;73.93
48244;BME280;34053;51.088;6.572;2022-11-20T10:31:37;100515.81;;;5.29;74.11
48244;BME280;34053;51.088;6.572;2022-11-20T10:34:22;100503.69;;;5.28;74.98
48244;BME280;34053;51.088;6.572;2022-11-20T10:40:03;100498.34;;;5.42;74.28
48244;BME280;34053;51.088;6.572;2022-11-20T10:45:16;100488.78;;;5.44;74.22
48244;BME280;34053;51.088;6.572;2022-11-20T10:47:51;100480.00;;;5.56;73.39
48244;BME280;34053;51.088;6.572;2022-11-20T10:50:23;100475.69;;;5.53;74.07
48244;BME280;34053;51.088;6.572;2022-11-20T11:00:38;100458.25;;;5.61;74.09
48244;BME280;34053;51.088;6.572;2022-11-20T11:03:35;100462.56;;;5.65;74.32
48244;BME280;34053;51.088;6.572;2022-11-20T11:06:15;100461.66;;;5.66;73.54
48244;BME280;34053;51.088;6.572;2022-11-20T11:08:50;100462.56;;;5.65;74.06
48244;BME280;34053;51.088;6.572;2022-11-20T11:11:33;100457.34;;;5.65;74.07
48244;BME280;34053;51.088;6.572;2022-11-20T11:14:14;100455.53;;;5.71;73.51
48244;BME280;34053;51.088;6.572;2022-11-20T11:16:53;100451.22;;;5.70;74.06
48244;BME280;34053;51.088;6.572;2022-11-20T11:19:24;100452.97;;;5.69;73.46
48244;BME280;34053;51.088;6.572;2022-11-20T11:21:56;100443.44;;;5.66;74.23
48244;BME280;34053;51.088;6.572;2022-11-20T11:24:29;100432.19;;;5.63;74.04
48244;BME280;34053;51.088;6.572;2022-11-20T11:27:10;100436.47;;;5.68;73.57
48244;BME280;34053;51.088;6.572;2022-11-20T11:29:41;100426.00;;;5.73;73.72
48244;BME280;34053;51.088;6.572;2022-11-20T11:32:14;100417.34;;;5.73;73.64
48244;BME280;34053;51.088;6.572;2022-11-20T11:34:45;100415.56;;;5.75;74.22
48244;BME280;34053;51.088;6.572;2022-11-20T11:37:20;100406.16;;;5.64;74.15
48244;BME280;34053;51.088;6.572;2022-11-20T11:39:54;100400.00;;;5.72;74.32
48244;BME280;34053;51.088;6.572;2022-11-20T11:42:24;100401.56;;;5.85;73.46
48244;BME280;34053;51.088;6.572;2022-11-20T11:44:57;100399.06;;;5.77;73.95
48244;BME280;34053;51.088;6.572;2022-11-20T11:47:44;100392.06;;;5.79;73.68
48244;BME280;34053;51.088;6.572;2022-11-20T11:50:24;100391.22;;;5.79;73.72
48244;BME280;34053;51.088;6.572;2022-11-20T11:53:02;100379.13;;;5.75;74.08
48244;BME280;34053;51.088;6.572;2022-11-20T11:55:45;100376.50;;;5.75;74.26
48244;BME280;34053;51.088;6.572;2022-11-20T11:58:34;100375.63;;;5.77;74.07
48244;BME280;34053;51.088;6.572;2022-11-20T12:01:33;100377.28;;;5.83;73.81
48244;BME280;34053;51.088;6.572;2022-11-20T12:07:41;100362.50;;;5.85;74.36
48244;BME280;34053;51.088;6.572;2022-11-20T12:10:19;100358.28;;;5.76;74.28
48244;BME280;34053;51.088;6.572;2022-11-20T12:13:01;100356.41;;;5.86;74.14
48244;BME280;34053;51.088;6.572;2022-11-20T12:15:33;100354.66;;;5.88;73.58
48244;BME280;34053;51.088;6.572;2022-11-20T12:18:13;100351.31;;;5.80;74.54
48244;BME280;34053;51.088;6.572;2022-11-20T12:23:31;100351.22;;;5.86;73.73
48244;BME280;34053;51.088;6.572;2022-11-20T12:26:16;100341.66;;;5.85;74.10
48244;BME280;34053;51.088;6.572;2022-11-20T12:29:39;100339.09;;;5.83;74.22
48244;BME280;34053;51.088;6.572;2022-11-20T12:32:22;100334.69;;;5.89;74.32
48244;BME280;34053;51.088;6.572;2022-11-20T12:43:37;100329.38;;;5.96;74.18
48244;BME280;34053;51.088;6.572;2022-11-20T12:51:47;100301.47;;;6.06;73.94
48244;BME280;34053;51.088;6.572;2022-11-20T12:57:46;100305.03;;;6.01;74.26
48244;BME280;34053;51.088;6.572;2022-11-20T13:00:22;100291.94;;;6.07;73.38
48244;BME280;34053;51.088;6.572;2022-11-20T13:08:43;100274.63;;;6.03;74.92
48244;BME280;34053;51.088;6.572;2022-11-20T13:11:21;100260.59;;;6.10;74.01
48244;BME280;34053;51.088;6.572;2022-11-20T13:19:12;100250.16;;;6.13;74.72
48244;BME280;34053;51.088;6.572;2022-11-20T13:21:46;100245.81;;;6.12;74.24
48244;BME280;34053;51.088;6.572;2022-11-20T13:24:21;100237.16;;;6.10;75.14
48244;BME280;34053;51.088;6.572;2022-11-20T13:29:42;100222.25;;;6.18;74.41
48244;BME280;34053;51.088;6.572;2022-11-20T13:32:16;100229.19;;;6.19;74.50
48244;BME280;34053;51.088;6.572;2022-11-20T13:34:54;100223.88;;;6.27;74.06
48244;BME280;34053;51.088;6.572;2022-11-20T13:37:33;100223.06;;;6.23;75.07
48244;BME280;34053;51.088;6.572;2022-11-20T13:40:21;100215.19;;;6.26;74.51
48244;BME280;34053;51.088;6.572;2022-11-20T13:43:14;100218.66;;;6.25;74.66
48244;BME280;34053;51.088;6.572;2022-11-20T13:45:59;100209.06;;;6.29;74.78
48244;BME280;34053;51.088;6.572;2022-11-20T13:48:38;100207.25;;;6.33;74.32
48244;BME280;34053;51.088;6.572;2022-11-20T13:57:01;100187.44;;;6.24;75.17
48244;BME280;34053;51.088;6.572;2022-11-20T14:02:15;100184.88;;;6.22;75.27
48244;BME280;34053;51.088;6.572;2022-11-20T14:04:48;100177.69;;;6.34;74.58
48244;BME280;34053;51.088;6.572;2022-11-20T14:07:20;100174.41;;;6.24;75.43
48244;BME280;34053;51.088;6.572;2022-11-20T14:09:55;100161.34;;;6.25;75.29
48244;BME280;34053;51.088;6.572;2022-11-20T14:12:31;100158.59;;;6.35;74.22
48244;BME280;34053;51.088;6.572;2022-11-20T14:15:02;100149.97;;;6.31;75.20
48244;BME280;34053;51.088;6.572;2022-11-20T14:17:35;100147.31;;;6.34;75.17
48244;BME280;34053;51.088;6.572;2022-11-20T14:20:14;100143.91;;;6.30;75.51
48244;BME280;34053;51.088;6.572;2022-11-20T14:22:49;100129.13;;;6.31;74.82
48244;BME280;34053;51.088;6.572;2022-11-20T14:25:22;100135.22;;;6.32;75.51
48244;BME280;34053;51.088;6.572;2022-11-20T14:27:56;100130.78;;;6.35;75.08
48244;BME280;34053;51.088;6.572;2022-11-20T14:30:29;100125.50;;;6.40;74.63
48244;BME280;34053;51.088;6.572;2022-11-20T14:33:06;100116.75;;;6.42;74.31
48244;BME280;34053;51.088;6.572;2022-11-20T14:35:43;100121.16;;;6.39;74.48
48244;BME280;34053;51.088;6.572;2022-11-20T14:38:17;100119.41;;;6.39;74.69
48244;BME280;34053;51.088;6.572;2022-11-20T14:40:48;100124.56;;;6.41;74.54
48244;BME280;34053;51.088;6.572;2022-11-20T14:43:27;100113.34;;;6.37;75.17
48244;BME280;34053;51.088;6.572;2022-11-20T14:46:02;100110.75;;;6.39;74.49
48244;BME280;34053;51.088;6.572;2022-11-20T14:48:46;100108.09;;;6.40;74.92